Flight Track Log - Related Links

Times and Time Zones

All times are in EDT time to prevent confusion due to time zone crossing. See the N516QS flight status page for this flight to view local times or setup timezone preferences in your user account.

Time Position Orientation Groundspeed Altitude Reporting Facility
EDT Latitude Longitude Course Direction KTS MPH feet Rate Location/Type
Thu 04:54:04 PM 3.5000 133.5000 45° Northeast 479 551 45,000  Level Oakland Oceanic (ODAPS)
Thu 05:00:00 PM 4.7319 134.7254 45° Northeast 479 551 45,000  Level FlightAware Transoceanic
Thu 05:01:00 PM 4.8266 134.8198 45° Northeast 479 551 45,000  Level FlightAware Transoceanic
Thu 05:02:00 PM 4.9212 134.9143 45° Northeast 479 551 45,000  Level FlightAware Transoceanic
Thu 05:03:00 PM 5.0159 135.0088 45° Northeast 479 551 45,000  Level FlightAware Transoceanic
Thu 05:04:00 PM 5.1105 135.1033 45° Northeast 479 551 45,000  Level FlightAware Transoceanic
Thu 05:05:00 PM 5.2051 135.1978 45° Northeast 479 551 45,000  Level FlightAware Transoceanic
Thu 05:06:00 PM 5.2997 135.2924 45° Northeast 479 551 45,000  Level FlightAware Transoceanic
Thu 05:07:00 PM 5.3943 135.3870 45° Northeast 479 551 45,000  Level FlightAware Transoceanic
Thu 05:08:00 PM 5.4889 135.4816 45° Northeast 479 551 45,000  Level FlightAware Transoceanic
Thu 05:09:00 PM 5.5835 135.5762 45° Northeast 479 551 45,000  Level FlightAware Transoceanic
Thu 05:10:00 PM 5.6780 135.6709 45° Northeast 479 551 45,000  Level FlightAware Transoceanic
Thu 05:11:00 PM 5.7726 135.7656 45° Northeast 479 551 45,000  Level FlightAware Transoceanic
Thu 05:12:00 PM 5.8671 135.8604 45° Northeast 479 551 45,000  Level FlightAware Transoceanic
Thu 05:13:00 PM 5.9616 135.9552 45° Northeast 479 551 45,000  Level FlightAware Transoceanic
Thu 05:14:00 PM 6.0561 136.0500 45° Northeast 479 551 45,000  Level FlightAware Transoceanic
Thu 05:15:00 PM 6.1505 136.1448 45° Northeast 479 551 45,000  Level FlightAware Transoceanic
Thu 05:16:00 PM 6.2450 136.2397 45° Northeast 479 551 45,000  Level FlightAware Transoceanic
Thu 05:17:00 PM 6.3394 136.3346 45° Northeast 479 551 45,000  Level FlightAware Transoceanic
Thu 05:18:00 PM 6.4339 136.4296 45° Northeast 479 551 45,000  Level FlightAware Transoceanic
Thu 05:19:00 PM 6.5283 136.5245 45° Northeast 479 551 45,000  Level FlightAware Transoceanic
Thu 05:20:00 PM 6.6227 136.6196 45° Northeast 479 551 45,000  Level FlightAware Transoceanic
Thu 05:21:00 PM 6.7170 136.7146 45° Northeast 479 551 45,000  Level FlightAware Transoceanic
Thu 05:22:00 PM 6.8114 136.8097 45° Northeast 479 551 45,000  Level FlightAware Transoceanic
Thu 05:23:00 PM 6.9057 136.9048 45° Northeast 479 551 45,000  Level FlightAware Transoceanic
Thu 05:24:00 PM 7.0000 137.0000 46° Northeast 479 551 45,000  Level FlightAware Transoceanic
Thu 05:25:00 PM 7.0945 137.0993 46° Northeast 479 551 45,000  Level FlightAware Transoceanic
Thu 05:26:00 PM 7.1889 137.1987 46° Northeast 479 551 45,000  Level FlightAware Transoceanic
Thu 05:27:00 PM 7.2834 137.2981 46° Northeast 479 551 45,000  Level FlightAware Transoceanic
Thu 05:28:00 PM 7.3778 137.3976 46° Northeast 479 551 45,000  Level FlightAware Transoceanic
Thu 05:29:00 PM 7.4722 137.4971 46° Northeast 479 551 45,000  Level FlightAware Transoceanic
Thu 05:30:00 PM 7.5666 137.5966 46° Northeast 479 551 45,000  Level FlightAware Transoceanic
Thu 05:31:00 PM 7.6609 137.6962 46° Northeast 479 551 45,000  Level FlightAware Transoceanic
Thu 05:32:00 PM 7.7553 137.7958 46° Northeast 479 551 45,000  Level FlightAware Transoceanic
Thu 05:33:00 PM 7.8496 137.8955 46° Northeast 479 551 45,000  Level FlightAware Transoceanic
Thu 05:34:00 PM 7.9438 137.9952 46° Northeast 479 551 45,000  Level FlightAware Transoceanic
Thu 05:35:00 PM 8.0381 138.0950 46° Northeast 479 551 45,000  Level FlightAware Transoceanic
Thu 05:36:00 PM 8.1323 138.1948 46° Northeast 479 551 45,000  Level FlightAware Transoceanic
Thu 05:37:00 PM 8.2266 138.2947 46° Northeast 479 551 45,000  Level FlightAware Transoceanic
Thu 05:38:00 PM 8.3207 138.3946 46° Northeast 479 551 45,000  Level FlightAware Transoceanic
Thu 05:39:00 PM 8.4149 138.4945 46° Northeast 479 551 45,000  Level FlightAware Transoceanic
Thu 05:40:00 PM 8.5090 138.5945 46° Northeast 479 551 45,000  Level FlightAware Transoceanic
Thu 05:41:00 PM 8.6031 138.6946 46° Northeast 479 551 45,000  Level FlightAware Transoceanic
Thu 05:42:00 PM 8.6972 138.7947 46° Northeast 479 551 45,000  Level FlightAware Transoceanic
Thu 05:43:00 PM 8.7913 138.8948 46° Northeast 479 551 45,000  Level FlightAware Transoceanic
Thu 05:44:00 PM 8.8853 138.9951 46° Northeast 479 551 45,000  Level FlightAware Transoceanic
Thu 05:45:00 PM 8.9793 139.0953 47° Northeast 479 551 45,000  Level FlightAware Transoceanic
Thu 05:46:00 PM 9.0733 139.1956 47° Northeast 479 551 45,000  Level FlightAware Transoceanic
Thu 05:47:00 PM 9.1672 139.2960 47° Northeast 479 551 45,000  Level FlightAware Transoceanic
Thu 05:48:00 PM 9.2612 139.3964 47° Northeast 479 551 45,000  Level FlightAware Transoceanic
Thu 05:49:00 PM 9.3551 139.4969 47° Northeast 479 551 45,000  Level FlightAware Transoceanic
Thu 05:50:00 PM 9.4489 139.5974 47° Northeast 479 551 45,000  Level FlightAware Transoceanic
Thu 05:51:00 PM 9.5428 139.6979 47° Northeast 479 551 45,000  Level FlightAware Transoceanic
Thu 05:52:00 PM 9.6366 139.7986 47° Northeast 479 551 45,000  Level FlightAware Transoceanic
Thu 05:53:00 PM 9.7303 139.8993 47° Northeast 479 551 45,000  Level FlightAware Transoceanic
Thu 05:54:00 PM 9.8241 140.0000 47° Northeast 479 551 45,000  Level FlightAware Transoceanic
Thu 05:55:00 PM 9.9178 140.1008 47° Northeast 479 551 45,000  Level FlightAware Transoceanic
Thu 05:56:00 PM 10.0115 140.2017 47° Northeast 479 551 45,000  Level FlightAware Transoceanic
Thu 05:57:00 PM 10.1052 140.3026 47° Northeast 479 551 45,000  Level FlightAware Transoceanic
Thu 05:58:00 PM 10.1988 140.4036 47° Northeast 479 551 45,000  Level FlightAware Transoceanic
Thu 05:59:00 PM 10.2924 140.5046 47° Northeast 479 551 45,000  Level FlightAware Transoceanic
Thu 06:00:00 PM 10.3860 140.6057 47° Northeast 479 551 45,000  Level FlightAware Transoceanic
Thu 06:01:00 PM 10.4795 140.7068 47° Northeast 479 551 45,000  Level FlightAware Transoceanic
Thu 06:02:00 PM 10.5730 140.8081 47° Northeast 479 551 45,000  Level FlightAware Transoceanic
Thu 06:03:00 PM 10.6665 140.9093 47° Northeast 479 551 45,000  Level FlightAware Transoceanic
Thu 06:04:00 PM 10.7599 141.0107 47° Northeast 479 551 45,000  Level FlightAware Transoceanic
Thu 06:05:00 PM 10.8533 141.1121 47° Northeast 479 551 45,000  Level FlightAware Transoceanic
Thu 06:06:00 PM 10.9467 141.2135 47° Northeast 479 551 45,000  Level FlightAware Transoceanic
Thu 06:07:00 PM 11.0400 141.3151 47° Northeast 479 551 45,000  Level FlightAware Transoceanic
Thu 06:08:00 PM 11.2344 141.5350 48° Northeast  Level FlightAware Approximate
Thu 06:09:00 PM 11.5206 141.8583 48° Northeast  Level FlightAware Approximate
Thu 06:10:00 PM 11.8064 142.1823 48° Northeast  Level FlightAware Approximate
Thu 06:11:00 PM 12.0918 142.5069 48° Northeast  Level FlightAware Approximate
Thu 06:11:19 PM 11.2167 141.5333 59° Northeast 480 552 45,000  Level Guam Center
Thu 06:12:00 PM 12.3475 142.8546 59° Northeast  Level FlightAware Approximate
Thu 06:12:19 PM 11.2833 141.6333 56° Northeast 470 541 45,000  Level Guam Center
Thu 06:13:00 PM 12.5701 143.2277 59° Northeast  Level FlightAware Approximate
Thu 06:13:19 PM 11.3833 141.7333 44° Northeast 470 541 45,000  Level Guam Center
Thu 06:14:00 PM 12.7915 143.6020 59° Northeast  Level FlightAware Approximate
Thu 06:14:19 PM 11.4667 141.8167 44° Northeast 460 529 45,000  Level Guam Center
Thu 06:15:00 PM 13.0122 143.9770 59° Northeast  Level FlightAware Approximate
Thu 06:15:20 PM 11.5500 141.9167 50° Northeast 470 541 45,000  Level Guam Center
Thu 06:16:00 PM 13.2324 144.3526 59° Northeast  Level FlightAware Approximate
Thu 06:16:20 PM 11.6333 142.0167 50° Northeast 460 529 45,000  Level Guam Center
Thu 06:17:20 PM 11.7333 142.1167 44° Northeast 460 529 45,000  Level Guam Center
Thu 06:18:20 PM 11.8167 142.2167 50° Northeast 470 541 45,000  Level Guam Center
Thu 06:19:20 PM 11.9000 142.3167 50° Northeast 470 541 45,000  Level Guam Center
Thu 06:20:20 PM 11.9833 142.4167 50° Northeast 460 529 45,000 -248 Level Guam Center
Thu 06:21:21 PM 12.0667 142.5167 50° Northeast 470 541 44,500 -900 Descending Guam Center
Thu 06:22:20 PM 12.1667 142.6000 39° Northeast 460 529 43,200 -1,550 Descending Guam Center
Thu 06:23:21 PM 12.2333 142.7000 56° Northeast 460 529 41,400 -2,132 Descending Guam Center
Thu 06:24:21 PM 12.3167 142.8167 54° Northeast 470 541 38,900 -2,450 Descending Guam Center
Thu 06:25:21 PM 12.3833 142.9333 60° Northeast 480 552 36,500 -2,400 Descending Guam Center
Thu 06:26:21 PM 12.4500 143.0500 60° Northeast 500 575 34,100 -2,350 Descending Guam Center
Thu 06:27:21 PM 12.5167 143.1833 63° Northeast 510 587 31,800 -2,400 Descending Guam Center
Thu 06:28:21 PM 12.6000 143.3000 54° Northeast 510 587 29,300 -2,479 Descending Guam Center
Thu 06:29:22 PM 12.6667 143.4167 60° Northeast 490 564 26,800 -2,380 Descending Guam Center
Thu 06:30:22 PM 12.7500 143.5333 54° Northeast 490 564 24,500 -2,450 Descending Guam Center
Thu 06:31:22 PM 12.8000 143.6500 66° East 460 529 21,900 -2,300 Descending Guam Center
Thu 06:32:22 PM 12.8667 143.7667 60° Northeast 440 506 19,900 -2,200 Descending Guam Center
Thu 06:33:22 PM 12.9333 143.8667 56° Northeast 410 472 17,500 -2,320 Descending Guam Center
Thu 06:35:23 PM 13.0500 144.0500 57° Northeast 350 403 12,900 -2,155 Descending Guam Center
Thu 06:36:23 PM 13.1000 144.1333 58° Northeast 320 368 11,000 -1,700 Descending Guam Center
Thu 06:37:23 PM 13.1333 144.2000 63° Northeast 290 334 9,500 -1,500 Descending Guam Center

Login

Don't have an account? Register now (free) for customized features, flight alerts, and more!